sensor_id;sensor_type;location;lat;lon;timestamp;pressure;altitude;pressure_sealevel;temperature;humidity
6938;BME280;40040;42.706;23.372;2022-12-29T00:00:19;145161.50;;;3.97;100.00
6938;BME280;40040;42.706;23.372;2022-12-29T00:02:46;145213.03;;;4.18;100.00
6938;BME280;40040;42.706;23.372;2022-12-29T00:05:13;145205.69;;;4.15;100.00
6938;BME280;40040;42.706;23.372;2022-12-29T00:07:40;145157.81;;;3.95;100.00
6938;BME280;40040;42.706;23.372;2022-12-29T00:10:08;145190.94;;;4.09;100.00
6938;BME280;40040;42.706;23.372;2022-12-29T00:12:35;145179.91;;;4.04;100.00
6938;BME280;40040;42.706;23.372;2022-12-29T00:15:19;145227.75;;;4.24;100.00
6938;BME280;40040;42.706;23.372;2022-12-29T00:18:04;145226.53;;;4.23;100.00
6938;BME280;40040;42.706;23.372;2022-12-29T00:20:33;145219.16;;;4.20;100.00
6938;BME280;40040;42.706;23.372;2022-12-29T00:23:18;145214.28;;;4.18;100.00
6938;BME280;40040;42.706;23.372;2022-12-29T00:26:10;145220.38;;;4.21;100.00
6938;BME280;40040;42.706;23.372;2022-12-29T00:28:57;145221.63;;;4.21;100.00
6938;BME280;40040;42.706;23.372;2022-12-29T00:31:40;145211.78;;;4.17;100.00
6938;BME280;40040;42.706;23.372;2022-12-29T00:34:25;145214.28;;;4.18;100.00
6938;BME280;40040;42.706;23.372;2022-12-29T00:37:09;145195.84;;;4.11;100.00
6938;BME280;40040;42.706;23.372;2022-12-29T00:39:36;145208.13;;;4.16;100.00
6938;BME280;40040;42.706;23.372;2022-12-29T00:42:21;145189.69;;;4.08;100.00
6938;BME280;40040;42.706;23.372;2022-12-29T00:45:06;145235.13;;;4.27;100.00
6938;BME280;40040;42.706;23.372;2022-12-29T00:47:33;145237.56;;;4.28;100.00
6938;BME280;40040;42.706;23.372;2022-12-29T00:49:59;145246.16;;;4.31;100.00
6938;BME280;40040;42.706;23.372;2022-12-29T00:52:25;145249.84;;;4.33;100.00
6938;BME280;40040;42.706;23.372;2022-12-29T00:54:52;145228.97;;;4.24;100.00
6938;BME280;40040;42.706;23.372;2022-12-29T00:57:20;145217.94;;;4.20;100.00
6938;BME280;40040;42.706;23.372;2022-12-29T00:59:47;145256.00;;;4.35;100.00
6938;BME280;40040;42.706;23.372;2022-12-29T01:02:14;145265.78;;;4.39;100.00
6938;BME280;40040;42.706;23.372;2022-12-29T01:04:41;145273.19;;;4.42;100.00
6938;BME280;40040;42.706;23.372;2022-12-29T01:07:07;145265.78;;;4.39;100.00
6938;BME280;40040;42.706;23.372;2022-12-29T01:09:34;145216.72;;;4.19;100.00
6938;BME280;40040;42.706;23.372;2022-12-29T01:12:19;145238.81;;;4.28;100.00
6938;BME280;40040;42.706;23.372;2022-12-29T01:15:08;145271.94;;;4.42;100.00
6938;BME280;40040;42.706;23.372;2022-12-29T01:17:36;145248.59;;;4.32;100.00
6938;BME280;40040;42.706;23.372;2022-12-29T01:20:04;145275.63;;;4.43;100.00
6938;BME280;40040;42.706;23.372;2022-12-29T01:22:31;145278.09;;;4.44;100.00
6938;BME280;40040;42.706;23.372;2022-12-29T01:24:58;145281.78;;;4.46;100.00
6938;BME280;40040;42.706;23.372;2022-12-29T01:27:24;145300.16;;;4.53;100.00
6938;BME280;40040;42.706;23.372;2022-12-29T01:29:51;145297.72;;;4.52;100.00
6938;BME280;40040;42.706;23.372;2022-12-29T01:32:19;145302.66;;;4.54;100.00
6938;BME280;40040;42.706;23.372;2022-12-29T01:34:46;145294.06;;;4.51;100.00
6938;BME280;40040;42.706;23.372;2022-12-29T01:37:13;145300.16;;;4.53;100.00
6938;BME280;40040;42.706;23.372;2022-12-29T01:39:40;145268.28;;;4.40;100.00
6938;BME280;40040;42.706;23.372;2022-12-29T01:42:12;145295.28;;;4.51;100.00
6938;BME280;40040;42.706;23.372;2022-12-29T01:44:52;145292.81;;;4.50;100.00
6938;BME280;40040;42.706;23.372;2022-12-29T01:47:29;145295.28;;;4.51;100.00
6938;BME280;40040;42.706;23.372;2022-12-29T01:50:01;145279.31;;;4.45;100.00
6938;BME280;40040;42.706;23.372;2022-12-29T01:52:32;145209.38;;;4.16;100.00
6938;BME280;40040;42.706;23.372;2022-12-29T01:55:02;145251.09;;;4.33;100.00
6938;BME280;40040;42.706;23.372;2022-12-29T01:57:33;145241.25;;;4.29;100.00
6938;BME280;40040;42.706;23.372;2022-12-29T02:00:07;145232.66;;;4.26;100.00
6938;BME280;40040;42.706;23.372;2022-12-29T02:02:36;145221.63;;;4.21;100.00
6938;BME280;40040;42.706;23.372;2022-12-29T02:05:09;145233.91;;;4.26;100.00
6938;BME280;40040;42.706;23.372;2022-12-29T02:07:37;145254.75;;;4.35;100.00
6938;BME280;40040;42.706;23.372;2022-12-29T02:10:05;145182.34;;;4.05;100.00
6938;BME280;40040;42.706;23.372;2022-12-29T02:12:32;145242.50;;;4.30;100.00
6938;BME280;40040;42.706;23.372;2022-12-29T02:15:00;145238.81;;;4.28;100.00
6938;BME280;40040;42.706;23.372;2022-12-29T02:17:41;145236.34;;;4.27;100.00
6938;BME280;40040;42.706;23.372;2022-12-29T02:23:30;145166.41;;;3.99;100.00
6938;BME280;40040;42.706;23.372;2022-12-29T02:26:29;145159.00;;;3.96;100.00
6938;BME280;40040;42.706;23.372;2022-12-29T02:29:15;145183.59;;;4.06;100.00
6938;BME280;40040;42.706;23.372;2022-12-29T02:31:52;145182.34;;;4.05;100.00
6938;BME280;40040;42.706;23.372;2022-12-29T02:34:32;145167.59;;;3.99;100.00
6938;BME280;40040;42.706;23.372;2022-12-29T02:37:07;145198.28;;;4.12;100.00
6938;BME280;40040;42.706;23.372;2022-12-29T02:39:41;145199.53;;;4.12;100.00
6938;BME280;40040;42.706;23.372;2022-12-29T02:42:22;145179.91;;;4.04;100.00
6938;BME280;40040;42.706;23.372;2022-12-29T02:44:54;145167.59;;;3.99;100.00
6938;BME280;40040;42.706;23.372;2022-12-29T02:47:29;145184.78;;;4.06;100.00
6938;BME280;40040;42.706;23.372;2022-12-29T02:50:03;145170.09;;;4.00;100.00
6938;BME280;40040;42.706;23.372;2022-12-29T02:52:36;145171.31;;;4.01;100.00
6938;BME280;40040;42.706;23.372;2022-12-29T02:55:06;145167.59;;;3.99;100.00
6938;BME280;40040;42.706;23.372;2022-12-29T02:57:33;145178.66;;;4.04;100.00
6938;BME280;40040;42.706;23.372;2022-12-29T03:00:05;145188.50;;;4.08;100.00
6938;BME280;40040;42.706;23.372;2022-12-29T03:03:02;145152.91;;;3.93;100.00
6938;BME280;40040;42.706;23.372;2022-12-29T03:05:45;145145.56;;;3.90;100.00
6938;BME280;40040;42.706;23.372;2022-12-29T03:08:24;145160.25;;;3.96;100.00
6938;BME280;40040;42.706;23.372;2022-12-29T03:10:59;145092.78;;;3.69;100.00
6938;BME280;40040;42.706;23.372;2022-12-29T03:13:32;145125.88;;;3.82;100.00
6938;BME280;40040;42.706;23.372;2022-12-29T03:16:21;145098.94;;;3.71;100.00
6938;BME280;40040;42.706;23.372;2022-12-29T03:18:56;145074.34;;;3.61;100.00
6938;BME280;40040;42.706;23.372;2022-12-29T03:21:30;145097.69;;;3.71;100.00
6938;BME280;40040;42.706;23.372;2022-12-29T03:24:12;145090.34;;;3.68;100.00
6938;BME280;40040;42.706;23.372;2022-12-29T03:26:41;145086.63;;;3.66;100.00
6938;BME280;40040;42.706;23.372;2022-12-29T03:29:08;145049.84;;;3.51;100.00
6938;BME280;40040;42.706;23.372;2022-12-29T03:31:37;145079.28;;;3.63;100.00
6938;BME280;40040;42.706;23.372;2022-12-29T03:34:07;145079.28;;;3.63;100.00
6938;BME280;40040;42.706;23.372;2022-12-29T03:36:40;145068.25;;;3.59;100.00
6938;BME280;40040;42.706;23.372;2022-12-29T03:39:11;145075.59;;;3.62;100.00
6938;BME280;40040;42.706;23.372;2022-12-29T03:41:41;145067.00;;;3.58;100.00
6938;BME280;40040;42.706;23.372;2022-12-29T03:44:10;145059.66;;;3.55;100.00
6938;BME280;40040;42.706;23.372;2022-12-29T03:46:37;144925.97;;;3.00;100.00
6938;BME280;40040;42.706;23.372;2022-12-29T03:49:05;145046.16;;;3.50;100.00
6938;BME280;40040;42.706;23.372;2022-12-29T03:51:32;145052.31;;;3.52;100.00
6938;BME280;40040;42.706;23.372;2022-12-29T03:53:59;145005.66;;;3.33;100.00
6938;BME280;40040;42.706;23.372;2022-12-29T03:56:26;145010.56;;;3.35;100.00
6938;BME280;40040;42.706;23.372;2022-12-29T03:58:52;145013.06;;;3.36;100.00
6938;BME280;40040;42.706;23.372;2022-12-29T04:01:19;145015.50;;;3.37;100.00
6938;BME280;40040;42.706;23.372;2022-12-29T04:03:46;144961.53;;;3.15;100.00
6938;BME280;40040;42.706;23.372;2022-12-29T04:06:14;145009.38;;;3.34;100.00
6938;BME280;40040;42.706;23.372;2022-12-29T04:08:41;144962.78;;;3.15;100.00
6938;BME280;40040;42.706;23.372;2022-12-29T04:11:08;145022.84;;;3.40;100.00
6938;BME280;40040;42.706;23.372;2022-12-29T04:13:34;145022.84;;;3.40;100.00
6938;BME280;40040;42.706;23.372;2022-12-29T04:16:01;145025.31;;;3.41;100.00
6938;BME280;40040;42.706;23.372;2022-12-29T04:18:28;145030.22;;;3.43;100.00
6938;BME280;40040;42.706;23.372;2022-12-29T04:20:55;144982.38;;;3.23;100.00
6938;BME280;40040;42.706;23.372;2022-12-29T04:23:30;145003.22;;;3.32;100.00
6938;BME280;40040;42.706;23.372;2022-12-29T04:25:57;144949.28;;;3.10;100.00
6938;BME280;40040;42.706;23.372;2022-12-29T04:28:24;144992.22;;;3.27;100.00
6938;BME280;40040;42.706;23.372;2022-12-29T04:30:51;144981.16;;;3.23;100.00
6938;BME280;40040;42.706;23.372;2022-12-29T04:33:18;144929.63;;;3.02;100.00
6938;BME280;40040;42.706;23.372;2022-12-29T04:35:45;144971.38;;;3.19;100.00
6938;BME280;40040;42.706;23.372;2022-12-29T04:38:12;144995.88;;;3.29;100.00
6938;BME280;40040;42.706;23.372;2022-12-29T04:40:42;145010.56;;;3.35;100.00
6938;BME280;40040;42.706;23.372;2022-12-29T04:43:09;145014.25;;;3.36;100.00
6938;BME280;40040;42.706;23.372;2022-12-29T04:45:38;145009.38;;;3.34;100.00
6938;BME280;40040;42.706;23.372;2022-12-29T04:48:05;144995.88;;;3.29;100.00
6938;BME280;40040;42.706;23.372;2022-12-29T04:50:32;144959.06;;;3.14;100.00
6938;BME280;40040;42.706;23.372;2022-12-29T04:52:58;144993.41;;;3.28;100.00
6938;BME280;40040;42.706;23.372;2022-12-29T04:55:25;144992.22;;;3.27;100.00
6938;BME280;40040;42.706;23.372;2022-12-29T04:57:54;144956.63;;;3.13;100.00
6938;BME280;40040;42.706;23.372;2022-12-29T05:00:22;144952.97;;;3.11;100.00
6938;BME280;40040;42.706;23.372;2022-12-29T05:02:48;144955.41;;;3.12;100.00
6938;BME280;40040;42.706;23.372;2022-12-29T05:05:16;144986.06;;;3.25;100.00
6938;BME280;40040;42.706;23.372;2022-12-29T05:07:42;144995.88;;;3.29;100.00
6938;BME280;40040;42.706;23.372;2022-12-29T05:10:10;144970.13;;;3.18;100.00
6938;BME280;40040;42.706;23.372;2022-12-29T05:12:38;144983.63;;;3.24;100.00
6938;BME280;40040;42.706;23.372;2022-12-29T05:15:08;144976.22;;;3.21;100.00
6938;BME280;40040;42.706;23.372;2022-12-29T05:17:35;144966.47;;;3.17;100.00
6938;BME280;40040;42.706;23.372;2022-12-29T05:20:03;144972.56;;;3.19;100.00
6938;BME280;40040;42.706;23.372;2022-12-29T05:22:30;144965.22;;;3.16;100.00
6938;BME280;40040;42.706;23.372;2022-12-29T05:24:57;144951.72;;;3.11;100.00
6938;BME280;40040;42.706;23.372;2022-12-29T05:27:23;145000.81;;;3.31;100.00
6938;BME280;40040;42.706;23.372;2022-12-29T05:29:50;144993.41;;;3.28;100.00
6938;BME280;40040;42.706;23.372;2022-12-29T05:32:19;144997.13;;;3.29;100.00
6938;BME280;40040;42.706;23.372;2022-12-29T05:34:46;144990.97;;;3.27;100.00
6938;BME280;40040;42.706;23.372;2022-12-29T05:37:12;144982.38;;;3.23;100.00
6938;BME280;40040;42.706;23.372;2022-12-29T05:39:39;144950.47;;;3.10;100.00
6938;BME280;40040;42.706;23.372;2022-12-29T05:42:06;144984.81;;;3.24;100.00
6938;BME280;40040;42.706;23.372;2022-12-29T05:44:33;145044.91;;;3.49;100.00
6938;BME280;40040;42.706;23.372;2022-12-29T05:47:00;145048.59;;;3.51;100.00
6938;BME280;40040;42.706;23.372;2022-12-29T05:49:28;145044.91;;;3.49;100.00
6938;BME280;40040;42.706;23.372;2022-12-29T05:51:55;145005.66;;;3.33;100.00
6938;BME280;40040;42.706;23.372;2022-12-29T05:54:22;145029.00;;;3.42;100.00
6938;BME280;40040;42.706;23.372;2022-12-29T05:56:48;145063.34;;;3.57;100.00
6938;BME280;40040;42.706;23.372;2022-12-29T05:59:15;145059.66;;;3.55;100.00
6938;BME280;40040;42.706;23.372;2022-12-29T06:01:42;145041.25;;;3.47;100.00
6938;BME280;40040;42.706;23.372;2022-12-29T06:04:09;145005.66;;;3.33;100.00
6938;BME280;40040;42.706;23.372;2022-12-29T06:06:39;145047.41;;;3.50;100.00
6938;BME280;40040;42.706;23.372;2022-12-29T06:09:08;145101.38;;;3.72;100.00
6938;BME280;40040;42.706;23.372;2022-12-29T06:11:36;144968.88;;;3.18;100.00
6938;BME280;40040;42.706;23.372;2022-12-29T06:14:03;145013.06;;;3.36;100.00
6938;BME280;40040;42.706;23.372;2022-12-29T06:16:29;145125.88;;;3.82;100.00
6938;BME280;40040;42.706;23.372;2022-12-29T06:18:56;145096.44;;;3.70;100.00
6938;BME280;40040;42.706;23.372;2022-12-29T06:21:23;145117.31;;;3.79;100.00
6938;BME280;40040;42.706;23.372;2022-12-29T06:23:51;145118.53;;;3.79;100.00
6938;BME280;40040;42.706;23.372;2022-12-29T06:26:18;145119.78;;;3.80;100.00
6938;BME280;40040;42.706;23.372;2022-12-29T06:28:45;145124.69;;;3.82;100.00
6938;BME280;40040;42.706;23.372;2022-12-29T06:31:12;145114.88;;;3.78;100.00
6938;BME280;40040;42.706;23.372;2022-12-29T06:33:39;145101.38;;;3.72;100.00
6938;BME280;40040;42.706;23.372;2022-12-29T06:36:06;145128.38;;;3.83;100.00
6938;BME280;40040;42.706;23.372;2022-12-29T06:38:39;145155.34;;;3.94;100.00
6938;BME280;40040;42.706;23.372;2022-12-29T06:41:09;145167.59;;;3.99;100.00
6938;BME280;40040;42.706;23.372;2022-12-29T06:43:39;145157.81;;;3.95;100.00
6938;BME280;40040;42.706;23.372;2022-12-29T06:46:13;145175.00;;;4.02;100.00
6938;BME280;40040;42.706;23.372;2022-12-29T06:48:40;145138.16;;;3.87;100.00
6938;BME280;40040;42.706;23.372;2022-12-29T06:51:07;145209.38;;;4.16;100.00
6938;BME280;40040;42.706;23.372;2022-12-29T06:53:34;145214.28;;;4.18;100.00
6938;BME280;40040;42.706;23.372;2022-12-29T06:56:01;145292.81;;;4.50;100.00
6938;BME280;40040;42.706;23.372;2022-12-29T06:58:38;145064.56;;;3.57;100.00
6938;BME280;40040;42.706;23.372;2022-12-29T07:01:11;145306.31;;;4.56;100.00
6938;BME280;40040;42.706;23.372;2022-12-29T07:07:00;145338.22;;;4.69;100.00
6938;BME280;40040;42.706;23.372;2022-12-29T07:09:27;145307.56;;;4.56;100.00
6938;BME280;40040;42.706;23.372;2022-12-29T07:11:56;145311.25;;;4.58;100.00
6938;BME280;40040;42.706;23.372;2022-12-29T07:14:24;145420.50;;;5.03;100.00
6938;BME280;40040;42.706;23.372;2022-12-29T07:16:55;145416.84;;;5.01;100.00
6938;BME280;40040;42.706;23.372;2022-12-29T07:19:27;145278.09;;;4.44;100.00
6938;BME280;40040;42.706;23.372;2022-12-29T07:22:13;145445.06;;;5.13;100.00
6938;BME280;40040;42.706;23.372;2022-12-29T07:24:40;145462.25;;;5.20;100.00
6938;BME280;40040;42.706;23.372;2022-12-29T07:27:11;145479.47;;;5.27;100.00
6938;BME280;40040;42.706;23.372;2022-12-29T07:29:45;145442.63;;;5.12;100.00
6938;BME280;40040;42.706;23.372;2022-12-29T07:32:17;145425.44;;;5.05;100.00
6938;BME280;40040;42.706;23.372;2022-12-29T07:34:44;145535.97;;;5.50;100.00
6938;BME280;40040;42.706;23.372;2022-12-29T07:37:12;145559.34;;;5.59;100.00
6938;BME280;40040;42.706;23.372;2022-12-29T07:39:41;145641.72;;;5.93;100.00
6938;BME280;40040;42.706;23.372;2022-12-29T07:42:07;145692.09;;;6.14;100.00
6938;BME280;40040;42.706;23.372;2022-12-29T07:44:34;145685.97;;;6.11;100.00
6938;BME280;40040;42.706;23.372;2022-12-29T07:47:03;145730.25;;;6.29;100.00
6938;BME280;40040;42.706;23.372;2022-12-29T07:49:30;145819.97;;;6.66;100.00
6938;BME280;40040;42.706;23.372;2022-12-29T07:51:57;145867.97;;;6.85;100.00
6938;BME280;40040;42.706;23.372;2022-12-29T07:54:23;145760.94;;;6.42;100.00
6938;BME280;40040;42.706;23.372;2022-12-29T07:56:50;145914.69;;;7.05;100.00
6938;BME280;40040;42.706;23.372;2022-12-29T07:59:17;145960.25;;;7.23;100.00
6938;BME280;40040;42.706;23.372;2022-12-29T08:01:44;145990.97;;;7.36;100.00
6938;BME280;40040;42.706;23.372;2022-12-29T08:04:12;146014.38;;;7.45;100.00
6938;BME280;40040;42.706;23.372;2022-12-29T08:06:39;146007.00;;;7.42;100.00
6938;BME280;40040;42.706;23.372;2022-12-29T08:09:07;146075.94;;;7.70;100.00
6938;BME280;40040;42.706;23.372;2022-12-29T08:11:34;146112.84;;;7.85;100.00
6938;BME280;40040;42.706;23.372;2022-12-29T08:14:02;145989.78;;;7.35;100.00
6938;BME280;40040;42.706;23.372;2022-12-29T08:16:29;146064.84;;;7.66;100.00
6938;BME280;40040;42.706;23.372;2022-12-29T08:18:56;146093.16;;;7.77;100.00
6938;BME280;40040;42.706;23.372;2022-12-29T08:21:26;146138.69;;;7.96;100.00
6938;BME280;40040;42.706;23.372;2022-12-29T08:23:54;146210.16;;;8.25;100.00
6938;BME280;40040;42.706;23.372;2022-12-29T08:26:20;146271.75;;;8.50;100.00
6938;BME280;40040;42.706;23.372;2022-12-29T08:28:48;146281.56;;;8.54;100.00
6938;BME280;40040;42.706;23.372;2022-12-29T08:31:15;146164.56;;;8.07;100.00
6938;BME280;40040;42.706;23.372;2022-12-29T08:33:41;146358.00;;;8.85;100.00
6938;BME280;40040;42.706;23.372;2022-12-29T08:36:09;146276.69;;;8.52;100.00
6938;BME280;40040;42.706;23.372;2022-12-29T08:38:37;146409.75;;;9.06;100.00
6938;BME280;40040;42.706;23.372;2022-12-29T08:41:04;146444.22;;;9.21;100.00
6938;BME280;40040;42.706;23.372;2022-12-29T08:43:31;146429.44;;;9.15;100.00
6938;BME280;40040;42.706;23.372;2022-12-29T08:45:58;146476.28;;;9.34;100.00
6938;BME280;40040;42.706;23.372;2022-12-29T08:48:25;146557.63;;;9.67;100.00
6938;BME280;40040;42.706;23.372;2022-12-29T08:50:52;146588.47;;;9.79;100.00
6938;BME280;40040;42.706;23.372;2022-12-29T08:53:19;146588.47;;;9.79;100.00
6938;BME280;40040;42.706;23.372;2022-12-29T08:55:55;146643.97;;;10.02;100.00
6938;BME280;40040;42.706;23.372;2022-12-29T08:58:22;146662.47;;;10.09;100.00
6938;BME280;40040;42.706;23.372;2022-12-29T09:00:49;146713.06;;;10.30;100.00
6938;BME280;40040;42.706;23.372;2022-12-29T09:03:16;146736.50;;;10.40;100.00
6938;BME280;40040;42.706;23.372;2022-12-29T09:05:42;146674.84;;;10.14;100.00
6938;BME280;40040;42.706;23.372;2022-12-29T09:08:09;146662.47;;;10.09;100.00
6938;BME280;40040;42.706;23.372;2022-12-29T09:10:36;146636.53;;;9.99;100.00
6938;BME280;40040;42.706;23.372;2022-12-29T09:13:04;146699.50;;;10.25;100.00
6938;BME280;40040;42.706;23.372;2022-12-29T09:15:31;146757.44;;;10.48;100.00
6938;BME280;40040;42.706;23.372;2022-12-29T09:17:58;146804.34;;;10.67;100.00
6938;BME280;40040;42.706;23.372;2022-12-29T09:20:25;146857.41;;;10.89;100.00
6938;BME280;40040;42.706;23.372;2022-12-29T09:22:52;146898.13;;;11.05;100.00
6938;BME280;40040;42.706;23.372;2022-12-29T09:25:19;146962.28;;;11.31;100.00
6938;BME280;40040;42.706;23.372;2022-12-29T09:27:49;146988.22;;;11.42;100.00
6938;BME280;40040;42.706;23.372;2022-12-29T09:30:20;147089.56;;;11.83;100.00
6938;BME280;40040;42.706;23.372;2022-12-29T09:32:47;147162.44;;;12.13;100.00
6938;BME280;40040;42.706;23.372;2022-12-29T09:35:15;147182.16;;;12.21;100.00
6938;BME280;40040;42.706;23.372;2022-12-29T09:37:43;147079.66;;;11.79;100.00
6938;BME280;40040;42.706;23.372;2022-12-29T09:40:22;147153.78;;;12.09;100.00
6938;BME280;40040;42.706;23.372;2022-12-29T09:43:12;147169.81;;;12.16;100.00
6938;BME280;40040;42.706;23.372;2022-12-29T09:45:48;147167.38;;;12.15;100.00
6938;BME280;40040;42.706;23.372;2022-12-29T09:48:20;147155.03;;;12.10;100.00
6938;BME280;40040;42.706;23.372;2022-12-29T09:50:59;147206.88;;;12.31;100.00
6938;BME280;40040;42.706;23.372;2022-12-29T09:53:30;147253.81;;;12.50;100.00
6938;BME280;40040;42.706;23.372;2022-12-29T09:56:00;147298.31;;;12.68;100.00
6938;BME280;40040;42.706;23.372;2022-12-29T09:58:33;147320.56;;;12.77;100.00
6938;BME280;40040;42.706;23.372;2022-12-29T10:01:06;147313.16;;;12.74;98.05
6938;BME280;40040;42.706;23.372;2022-12-29T10:03:43;147377.44;;;13.00;94.81
6938;BME280;40040;42.706;23.372;2022-12-29T10:06:13;147412.09;;;13.14;93.33
6938;BME280;40040;42.706;23.372;2022-12-29T10:08:44;147520.88;;;13.58;90.80
6938;BME280;40040;42.706;23.372;2022-12-29T10:11:22;147553.06;;;13.72;89.04
6938;BME280;40040;42.706;23.372;2022-12-29T10:14:05;147530.78;;;13.63;87.27
6938;BME280;40040;42.706;23.372;2022-12-29T10:16:45;147503.56;;;13.51;87.68
6938;BME280;40040;42.706;23.372;2022-12-29T10:19:28;147580.22;;;13.83;88.48
6938;BME280;40040;42.706;23.372;2022-12-29T10:22:11;147626.03;;;14.01;86.02
6938;BME280;40040;42.706;23.372;2022-12-29T10:24:41;147499.84;;;13.50;86.79
6938;BME280;40040;42.706;23.372;2022-12-29T10:27:12;147565.41;;;13.77;87.85
6938;BME280;40040;42.706;23.372;2022-12-29T10:29:45;147630.97;;;14.03;86.26
6938;BME280;40040;42.706;23.372;2022-12-29T10:32:25;147616.09;;;13.97;84.81
6938;BME280;40040;42.706;23.372;2022-12-29T10:34:56;147768.38;;;14.59;83.19
6938;BME280;40040;42.706;23.372;2022-12-29T10:37:32;147805.47;;;14.74;80.58
6938;BME280;40040;42.706;23.372;2022-12-29T10:40:09;147800.53;;;14.72;80.05
6938;BME280;40040;42.706;23.372;2022-12-29T10:42:41;147746.09;;;14.50;80.17
6938;BME280;40040;42.706;23.372;2022-12-29T10:45:12;147758.44;;;14.55;80.92
6938;BME280;40040;42.706;23.372;2022-12-29T10:47:49;147842.59;;;14.89;80.88
6938;BME280;40040;42.706;23.372;2022-12-29T10:50:18;147924.31;;;15.22;78.29
6938;BME280;40040;42.706;23.372;2022-12-29T10:52:46;147988.72;;;15.48;78.83
6938;BME280;40040;42.706;23.372;2022-12-29T10:55:18;148050.69;;;15.73;76.50
6938;BME280;40040;42.706;23.372;2022-12-29T10:57:46;148038.31;;;15.68;75.59
6938;BME280;40040;42.706;23.372;2022-12-29T11:00:16;148008.56;;;15.56;77.08
6938;BME280;40040;42.706;23.372;2022-12-29T11:03:02;148117.53;;;16.01;76.34
6938;BME280;40040;42.706;23.372;2022-12-29T11:05:37;148204.28;;;16.36;72.80
6938;BME280;40040;42.706;23.372;2022-12-29T11:08:10;148204.28;;;16.36;72.89
6938;BME280;40040;42.706;23.372;2022-12-29T11:10:40;148251.41;;;16.55;73.60
6938;BME280;40040;42.706;23.372;2022-12-29T11:13:14;148283.66;;;16.68;72.88
6938;BME280;40040;42.706;23.372;2022-12-29T11:15:42;148365.47;;;17.01;71.53
6938;BME280;40040;42.706;23.372;2022-12-29T11:18:22;148477.13;;;17.46;69.75
6938;BME280;40040;42.706;23.372;2022-12-29T11:20:51;148298.50;;;16.74;69.34
6938;BME280;40040;42.706;23.372;2022-12-29T11:23:25;148266.31;;;16.61;70.94
6938;BME280;40040;42.706;23.372;2022-12-29T11:26:13;148144.81;;;16.12;72.09
6938;BME280;40040;42.706;23.372;2022-12-29T11:28:43;148007.31;;;15.56;73.59
6938;BME280;40040;42.706;23.372;2022-12-29T11:31:12;148032.09;;;15.66;74.54
6938;BME280;40040;42.706;23.372;2022-12-29T11:33:43;148100.19;;;15.94;73.02
6938;BME280;40040;42.706;23.372;2022-12-29T11:36:14;148189.44;;;16.30;73.09
6938;BME280;40040;42.706;23.372;2022-12-29T11:38:46;148276.19;;;16.65;71.64
6938;BME280;40040;42.706;23.372;2022-12-29T11:41:21;148246.47;;;16.53;71.43
6938;BME280;40040;42.706;23.372;2022-12-29T11:43:49;148335.72;;;16.89;70.86
6938;BME280;40040;42.706;23.372;2022-12-29T11:46:19;148353.09;;;16.96;71.40
6938;BME280;40040;42.706;23.372;2022-12-29T11:48:50;148402.66;;;17.16;70.96
6938;BME280;40040;42.706;23.372;2022-12-29T11:51:25;148432.41;;;17.28;69.37
6938;BME280;40040;42.706;23.372;2022-12-29T11:53:56;148343.16;;;16.92;70.85
6938;BME280;40040;42.706;23.372;2022-12-29T11:56:34;148276.19;;;16.65;71.36
6938;BME280;40040;42.706;23.372;2022-12-29T12:02:32;148303.47;;;16.76;71.77
6938;BME280;40040;42.706;23.372;2022-12-29T12:05:08;148325.81;;;16.85;72.28
6938;BME280;40040;42.706;23.372;2022-12-29T12:07:40;148261.34;;;16.59;73.28
6938;BME280;40040;42.706;23.372;2022-12-29T12:10:16;148227.84;;;16.45;72.73
6938;BME280;40040;42.706;23.372;2022-12-29T12:12:48;148137.41;;;16.09;73.42
6938;BME280;40040;42.706;23.372;2022-12-29T12:15:18;148105.16;;;15.96;75.31
6938;BME280;40040;42.706;23.372;2022-12-29T12:17:51;148022.22;;;15.62;75.52
6938;BME280;40040;42.706;23.372;2022-12-29T12:20:22;147983.78;;;15.46;76.64
6938;BME280;40040;42.706;23.372;2022-12-29T12:22:58;147958.97;;;15.36;77.67
6938;BME280;40040;42.706;23.372;2022-12-29T12:25:31;147885.91;;;15.07;77.48
6938;BME280;40040;42.706;23.372;2022-12-29T12:28:10;147874.78;;;15.02;79.00
6938;BME280;40040;42.706;23.372;2022-12-29T12:30:40;147872.28;;;15.01;78.36
6938;BME280;40040;42.706;23.372;2022-12-29T12:33:16;147853.75;;;14.94;79.25
6938;BME280;40040;42.706;23.372;2022-12-29T12:35:52;147758.44;;;14.55;78.69
6938;BME280;40040;42.706;23.372;2022-12-29T12:38:26;147919.34;;;15.20;78.47
6938;BME280;40040;42.706;23.372;2022-12-29T12:41:06;147956.50;;;15.35;77.82
6938;BME280;40040;42.706;23.372;2022-12-29T12:43:45;148007.31;;;15.56;77.83
6938;BME280;40040;42.706;23.372;2022-12-29T12:46:40;148100.19;;;15.94;75.51
6938;BME280;40040;42.706;23.372;2022-12-29T12:49:25;148082.84;;;15.87;75.77
6938;BME280;40040;42.706;23.372;2022-12-29T12:52:04;148060.59;;;15.77;76.42
6938;BME280;40040;42.706;23.372;2022-12-29T12:54:49;148082.84;;;15.87;75.83
6938;BME280;40040;42.706;23.372;2022-12-29T12:57:27;148043.25;;;15.70;75.94
6938;BME280;40040;42.706;23.372;2022-12-29T13:00:02;148035.78;;;15.67;76.54
6938;BME280;40040;42.706;23.372;2022-12-29T13:02:40;148035.78;;;15.67;76.94
6938;BME280;40040;42.706;23.372;2022-12-29T13:05:20;148030.88;;;15.65;76.41
6938;BME280;40040;42.706;23.372;2022-12-29T13:08:01;148061.81;;;15.78;75.73
6938;BME280;40040;42.706;23.372;2022-12-29T13:10:39;147937.91;;;15.28;76.38
6938;BME280;40040;42.706;23.372;2022-12-29T13:13:32;147779.47;;;14.63;79.00
6938;BME280;40040;42.706;23.372;2022-12-29T13:16:08;147686.69;;;14.26;80.83
6938;BME280;40040;42.706;23.372;2022-12-29T13:18:46;147661.88;;;14.16;82.32
6938;BME280;40040;42.706;23.372;2022-12-29T13:21:25;147616.09;;;13.97;83.31